Valkyrie — WDE9186 — position and weather

sailwx.info

Track history (hours):
 
Tides and Currents Weather Stations Pressure Air Temp Water Temp Dewpoint Dewpoint Depression Visibility Wind Speed Wind Dir Waves Ship Positions

Valkyrie

Owner: Marina Management Corp., Pensacola, FL. More information available from US FCC via Universal Licensing System and Coast Guard Vessel Documentation Center.

Last reported at 2015-Jul-31 22:07 UTC. Time now 2015-Aug-29 07:26 UTC.
Position N 30°24' W 086°52'.
Warning: this ship's position is 28 days out of date.

Length 23 m; draft 2.1 m.

Type: Pleasure craft. MMSI: 367414480.

Date/timePositionNaut miles runAvg speedWind from/ knotsBaromVisibWave heightAir tempDewpointWater temp
2015-Jul-31 22:07N 30°24' W 086°52'5 9.0
2015-Jul-31 21:33N 30°24' W 086°46'9 7.9
2015-Jul-31 20:22N 30°24' W 086°35'7 8.5
2015-Jul-31 19:33N 30°26' W 086°28'9 9.0
2015-Jul-31 18:33N 30°27' W 086°17'  
2015-Jul-27 12:33N 25°32' W 080°08'7 6.7
2015-Jul-27 11:33N 25°39' W 080°09'2 2.4
2015-Jul-27 10:33N 25°40' W 080°11'0 0.0
2015-Jul-27 09:33N 25°40' W 080°11'0 0.0
2015-Jul-27 08:33N 25°40' W 080°11'0 0.0
2015-Jul-27 07:33N 25°40' W 080°11'0 0.0
2015-Jul-27 06:33N 25°40' W 080°11'0 0.0
2015-Jul-27 05:34N 25°40' W 080°11'0 0.0
2015-Jul-27 04:33N 25°40' W 080°11'0 0.0
2015-Jul-27 03:33N 25°40' W 080°11'0 0.0
2015-Jul-27 02:33N 25°40' W 080°11'0 0.0
2015-Jul-27 01:33N 25°40' W 080°11'0 0.0
2015-Jul-27 00:33N 25°40' W 080°11'0 0.0
2015-Jul-26 23:33N 25°40' W 080°11'3 3.1
2015-Jul-26 22:33N 25°40' W 080°08'7 7.0
2015-Jul-26 21:33N 25°47' W 080°06'8 7.6
2015-Jul-26 20:33N 25°54' W 080°06'7 7.3
2015-Jul-26 19:33N 26°02' W 080°06'6 5.7
2015-Jul-26 18:33N 26°07' W 080°08'2 2.0
2015-Jul-26 17:33N 26°06' W 080°10'0 0.0
2015-Jul-26 16:33N 26°06' W 080°10'0 0.0
2015-Jul-26 15:33N 26°06' W 080°10'0 0.0
2015-Jul-26 14:33N 26°06' W 080°10'0 0.0
2015-Jul-26 13:33N 26°06' W 080°10'0 0.0
2015-Jul-26 12:33N 26°06' W 080°10'  
Track history (hours):
 
Tides and Currents Weather Stations Pressure Air Temp Water Temp Dewpoint Dewpoint Depression Visibility Wind Speed Wind Dir Waves Ship Positions

Valkyrie

Owner: Marina Management Corp., Pensacola, FL. More information available from US FCC via Universal Licensing System and Coast Guard Vessel Documentation Center.

Last reported at 2015-Jul-31 22:07 UTC. Time now 2015-Aug-29 07:26 UTC.
Position N 30°24' W 086°52'.
Warning: this ship's position is 28 days out of date.

Length 23 m; draft 2.1 m.

Type: Pleasure craft. MMSI: 367414480.

Date/timePositionNaut miles runAvg speedWind from/ knotsBaromVisibWave heightAir tempDewpointWater temp
2015-Jul-31 22:07N 30°24' W 086°52'5 9.0
2015-Jul-31 21:33N 30°24' W 086°46'9 7.9
2015-Jul-31 20:22N 30°24' W 086°35'7 8.5
2015-Jul-31 19:33N 30°26' W 086°28'9 9.0
2015-Jul-31 18:33N 30°27' W 086°17'  
2015-Jul-27 12:33N 25°32' W 080°08'7 6.7
2015-Jul-27 11:33N 25°39' W 080°09'2 2.4
2015-Jul-27 10:33N 25°40' W 080°11'0 0.0
2015-Jul-27 09:33N 25°40' W 080°11'0 0.0
2015-Jul-27 08:33N 25°40' W 080°11'0 0.0
2015-Jul-27 07:33N 25°40' W 080°11'0 0.0
2015-Jul-27 06:33N 25°40' W 080°11'0 0.0
2015-Jul-27 05:34N 25°40' W 080°11'0 0.0
2015-Jul-27 04:33N 25°40' W 080°11'0 0.0
2015-Jul-27 03:33N 25°40' W 080°11'0 0.0
2015-Jul-27 02:33N 25°40' W 080°11'0 0.0
2015-Jul-27 01:33N 25°40' W 080°11'0 0.0
2015-Jul-27 00:33N 25°40' W 080°11'0 0.0
2015-Jul-26 23:33N 25°40' W 080°11'3 3.1
2015-Jul-26 22:33N 25°40' W 080°08'7 7.0
2015-Jul-26 21:33N 25°47' W 080°06'8 7.6
2015-Jul-26 20:33N 25°54' W 080°06'7 7.3
2015-Jul-26 19:33N 26°02' W 080°06'6 5.7
2015-Jul-26 18:33N 26°07' W 080°08'2 2.0
2015-Jul-26 17:33N 26°06' W 080°10'0 0.0
2015-Jul-26 16:33N 26°06' W 080°10'0 0.0
2015-Jul-26 15:33N 26°06' W 080°10'0 0.0
2015-Jul-26 14:33N 26°06' W 080°10'0 0.0
2015-Jul-26 13:33N 26°06' W 080°10'0 0.0
2015-Jul-26 12:33N 26°06' W 080°10'  

Dump ship's entire track history